createdAt,value
2018-09-19T01:00:33.364Z,0.00
2018-09-19T01:01:33.307Z,0.00
2018-09-19T01:02:33.342Z,0.00
2018-09-19T01:03:33.284Z,0.00
2018-09-19T01:04:33.278Z,0.00
2018-09-19T01:05:33.270Z,0.00
2018-09-19T01:06:33.262Z,0.00
2018-09-19T01:07:33.326Z,0.00
2018-09-19T01:08:33.234Z,0.00
2018-09-19T01:09:33.226Z,0.00
2018-09-19T01:10:33.215Z,0.00
2018-09-19T01:11:33.205Z,0.00
2018-09-19T01:12:33.236Z,0.00
2018-09-19T01:13:33.182Z,0.00
2018-09-19T01:14:33.176Z,0.00
2018-09-19T01:15:33.162Z,0.00
2018-09-19T01:16:33.144Z,0.00
2018-09-19T01:17:33.190Z,0.00
2018-09-19T01:18:33.148Z,0.00
2018-09-19T01:19:33.114Z,0.00
2018-09-19T01:20:33.115Z,0.00
2018-09-19T01:21:33.090Z,0.00
2018-09-19T01:22:33.130Z,0.00
2018-09-19T01:23:33.082Z,0.00
2018-09-19T01:24:33.054Z,0.00
2018-09-19T01:25:33.049Z,0.00
2018-09-19T01:26:33.032Z,0.00
2018-09-19T01:27:33.084Z,0.00
2018-09-19T01:28:33.027Z,0.00
2018-09-19T01:29:32.997Z,0.00
2018-09-19T01:30:32.991Z,0.00
2018-09-19T01:31:32.982Z,0.00
2018-09-19T01:32:33.454Z,0.00
2018-09-19T01:33:32.954Z,0.00
2018-09-19T01:34:32.941Z,0.00
2018-09-19T01:35:32.929Z,0.00
2018-09-19T01:36:32.919Z,0.00
2018-09-19T01:37:32.957Z,0.00
2018-09-19T01:38:32.900Z,0.00
2018-09-19T01:39:32.891Z,0.00
2018-09-19T01:40:32.880Z,0.00
2018-09-19T01:41:32.874Z,0.00
2018-09-19T01:42:32.901Z,0.00
2018-09-19T01:43:32.853Z,0.00
2018-09-19T01:44:32.839Z,0.00
2018-09-19T01:45:32.823Z,0.00
2018-09-19T01:46:32.819Z,0.00
2018-09-19T01:47:32.851Z,0.00
2018-09-19T01:48:32.790Z,0.00
2018-09-19T01:49:32.782Z,0.00
2018-09-19T01:50:32.768Z,0.00
2018-09-19T01:51:32.756Z,0.00
2018-09-19T01:52:32.794Z,0.00
2018-09-19T01:53:32.736Z,0.00
2018-09-19T01:54:32.726Z,0.00
2018-09-19T01:55:32.729Z,0.00
2018-09-19T01:56:32.704Z,0.00
2018-09-19T01:57:32.736Z,0.00
2018-09-19T01:58:32.681Z,0.00
2018-09-19T01:59:32.671Z,0.00
2018-09-19T02:00:32.658Z,0.00
2018-09-19T02:01:32.660Z,0.00
2018-09-19T02:02:32.692Z,0.00
2018-09-19T02:03:32.627Z,0.00
2018-09-19T02:04:32.614Z,0.00
2018-09-19T02:05:32.603Z,0.00
2018-09-19T02:06:32.591Z,0.00
2018-09-19T02:07:32.629Z,0.00
2018-09-19T02:08:32.575Z,0.00
2018-09-19T02:09:32.561Z,0.00
2018-09-19T02:10:32.549Z,0.00
2018-09-19T02:11:32.542Z,0.00
2018-09-19T02:12:32.577Z,0.00
2018-09-19T02:13:32.515Z,0.00
2018-09-19T02:14:32.507Z,0.00
2018-09-19T02:15:32.501Z,0.00
2018-09-19T02:16:32.484Z,0.00
2018-09-19T02:17:32.517Z,0.00
2018-09-19T02:18:32.464Z,0.00
2018-09-19T02:19:32.456Z,0.00
2018-09-19T02:20:32.440Z,0.00
2018-09-19T02:21:32.439Z,0.00
2018-09-19T02:22:32.469Z,0.00
2018-09-19T02:23:32.407Z,0.00
2018-09-19T02:24:32.404Z,0.00
2018-09-19T02:25:32.388Z,0.00
2018-09-19T02:26:32.376Z,0.00
2018-09-19T02:27:32.437Z,0.00
2018-09-19T02:28:32.398Z,0.00
2018-09-19T02:29:32.344Z,0.00
2018-09-19T02:30:32.335Z,0.00
2018-09-19T02:31:32.321Z,0.00
2018-09-19T02:32:32.358Z,0.00
2018-09-19T02:33:32.307Z,0.00
2018-09-19T02:34:32.290Z,0.00
2018-09-19T02:35:32.280Z,0.00
2018-09-19T02:36:32.273Z,0.00
2018-09-19T02:37:32.300Z,0.00
2018-09-19T02:38:32.252Z,0.00
2018-09-19T02:39:32.240Z,0.00
2018-09-19T02:40:32.222Z,0.00
2018-09-19T02:41:32.210Z,0.00
2018-09-19T02:42:32.247Z,0.00
2018-09-19T02:43:32.193Z,0.00
2018-09-19T02:44:32.183Z,0.00
2018-09-19T02:45:32.170Z,0.00
2018-09-19T02:46:32.158Z,0.00
2018-09-19T02:47:32.230Z,0.00
2018-09-19T02:48:32.137Z,0.00
2018-09-19T02:49:32.127Z,0.00
2018-09-19T02:50:32.116Z,0.00
2018-09-19T02:51:32.145Z,0.00
2018-09-19T02:52:32.145Z,0.00
2018-09-19T02:53:32.085Z,0.00
2018-09-19T02:54:32.071Z,0.00
2018-09-19T02:55:32.064Z,0.00
2018-09-19T02:56:32.048Z,0.00
2018-09-19T02:57:32.088Z,0.00
2018-09-19T02:58:32.032Z,0.00
2018-09-19T02:59:32.045Z,0.00
2018-09-19T03:00:32.005Z,0.00
2018-09-19T03:01:32.000Z,0.00
2018-09-19T03:02:31.988Z,0.00
2018-09-19T03:03:32.028Z,0.00
2018-09-19T03:04:31.960Z,0.00
2018-09-19T03:05:31.953Z,0.00
2018-09-19T03:06:31.939Z,0.00
2018-09-19T03:07:31.927Z,0.00
2018-09-19T03:08:31.966Z,0.00
2018-09-19T03:09:31.908Z,0.00
2018-09-19T03:10:31.896Z,0.00
2018-09-19T03:11:31.904Z,0.00
2018-09-19T03:12:31.872Z,0.00
2018-09-19T03:13:31.917Z,0.00
2018-09-19T03:14:31.850Z,0.00
2018-09-19T03:15:31.840Z,0.00
2018-09-19T03:16:31.832Z,0.00
2018-09-19T03:17:31.983Z,0.00
2018-09-19T03:18:31.851Z,0.00
2018-09-19T03:19:31.794Z,0.00
2018-09-19T03:20:31.791Z,0.00
2018-09-19T03:21:31.777Z,0.00
2018-09-19T03:22:31.770Z,0.00
2018-09-19T03:23:31.799Z,0.00
2018-09-19T03:24:31.741Z,0.00
2018-09-19T03:25:31.732Z,0.00
2018-09-19T03:26:31.725Z,0.00
2018-09-19T03:27:31.708Z,0.00
2018-09-19T03:28:31.739Z,0.00
2018-09-19T03:29:31.702Z,0.00
2018-09-19T03:30:31.676Z,0.00
2018-09-19T03:31:31.674Z,0.00
2018-09-19T03:32:31.672Z,0.00
2018-09-19T03:33:31.689Z,0.00
2018-09-19T03:34:31.634Z,0.00
2018-09-19T03:35:31.722Z,0.00
2018-09-19T03:36:31.607Z,0.00
2018-09-19T03:37:31.598Z,0.00
2018-09-19T03:38:31.630Z,0.00
2018-09-19T03:39:31.577Z,0.00
2018-09-19T03:40:31.567Z,0.00
2018-09-19T03:41:31.555Z,0.00
2018-09-19T03:42:31.551Z,0.00
2018-09-19T03:43:31.574Z,0.00
2018-09-19T03:44:31.517Z,0.00
2018-09-19T03:45:31.525Z,0.00
2018-09-19T03:46:31.496Z,0.00
2018-09-19T03:47:31.485Z,0.00
2018-09-19T03:48:31.524Z,0.00
2018-09-19T03:49:31.462Z,0.00
2018-09-19T03:50:31.459Z,0.00
2018-09-19T03:51:31.447Z,0.00
2018-09-19T03:52:31.445Z,0.00
2018-09-19T03:53:31.462Z,0.00
2018-09-19T03:54:31.413Z,0.00
2018-09-19T03:55:31.397Z,0.00
2018-09-19T03:56:31.394Z,0.00
2018-09-19T03:57:31.378Z,0.00
2018-09-19T03:58:31.410Z,0.00
2018-09-19T03:59:31.354Z,0.00
2018-09-19T04:00:31.349Z,0.00
2018-09-19T04:01:31.331Z,0.00
2018-09-19T04:02:31.320Z,0.00
2018-09-19T04:03:31.351Z,0.00
2018-09-19T04:04:31.295Z,0.00
2018-09-19T04:05:31.284Z,0.00
2018-09-19T04:06:31.281Z,0.00
2018-09-19T04:07:31.272Z,0.00
2018-09-19T04:08:31.300Z,0.00
2018-09-19T04:09:31.249Z,0.00
2018-09-19T04:10:31.228Z,0.00
2018-09-19T04:11:31.220Z,0.00
2018-09-19T04:12:31.209Z,0.00
2018-09-19T04:13:31.239Z,0.00
2018-09-19T04:14:31.193Z,0.00
2018-09-19T04:15:31.173Z,0.00
2018-09-19T04:16:31.160Z,0.00
2018-09-19T04:17:31.153Z,0.00
2018-09-19T04:18:31.187Z,0.00
2018-09-19T04:19:31.152Z,0.00
2018-09-19T04:20:31.131Z,0.00
2018-09-19T04:21:31.110Z,0.00
2018-09-19T04:22:31.104Z,0.00
2018-09-19T04:23:31.147Z,0.00
2018-09-19T04:24:31.083Z,0.00
2018-09-19T04:25:31.063Z,0.00
2018-09-19T04:26:31.068Z,0.00
2018-09-19T04:27:31.056Z,0.00
2018-09-19T04:28:31.099Z,0.00
2018-09-19T04:29:31.034Z,0.00
2018-09-19T04:30:31.007Z,0.00
2018-09-19T04:31:31.009Z,0.00
2018-09-19T04:32:31.009Z,0.00
2018-09-19T04:33:31.043Z,0.00
2018-09-19T04:34:30.963Z,0.00
2018-09-19T04:35:30.962Z,0.00
2018-09-19T04:36:30.959Z,0.00
2018-09-19T04:37:30.930Z,0.00
2018-09-19T04:38:31.005Z,0.00
2018-09-19T04:39:30.904Z,0.00
2018-09-19T04:40:30.899Z,0.00
2018-09-19T04:41:30.891Z,0.00
2018-09-19T04:42:30.872Z,0.00
2018-09-19T04:43:30.910Z,0.00
2018-09-19T04:44:30.848Z,0.00
2018-09-19T04:45:30.844Z,0.00
2018-09-19T04:46:30.845Z,4.00
2018-09-19T04:47:30.817Z,4.00
2018-09-19T04:48:30.864Z,0.00
2018-09-19T04:49:30.804Z,4.00
2018-09-19T04:50:30.799Z,4.00
2018-09-19T04:51:30.826Z,4.00
2018-09-19T04:52:30.771Z,4.00
2018-09-19T04:53:30.816Z,8.00
2018-09-19T04:54:30.740Z,8.00
2018-09-19T04:55:30.731Z,8.00
2018-09-19T04:56:30.717Z,8.00
2018-09-19T04:57:30.707Z,12.00
2018-09-19T04:58:30.763Z,12.00
2018-09-19T04:59:30.684Z,12.00
2018-09-19T05:00:30.680Z,16.00
2018-09-19T05:01:30.666Z,16.00
2018-09-19T05:02:30.651Z,20.00
2018-09-19T05:03:30.693Z,24.00
2018-09-19T05:04:30.640Z,28.00
2018-09-19T05:05:30.656Z,32.00
2018-09-19T05:06:30.611Z,32.00
2018-09-19T05:07:30.611Z,36.00
2018-09-19T05:08:30.637Z,44.00
2018-09-19T05:09:30.578Z,48.00
2018-09-19T05:10:30.570Z,52.00
2018-09-19T05:11:30.654Z,56.00
2018-09-19T05:12:30.547Z,64.00
2018-09-19T05:13:30.580Z,68.00
2018-09-19T05:14:30.524Z,76.00
2018-09-19T05:15:30.534Z,84.00
2018-09-19T05:16:30.496Z,84.00
2018-09-19T05:17:30.487Z,92.00
2018-09-19T05:18:30.526Z,100.00
2018-09-19T05:19:30.487Z,108.00
2018-09-19T05:20:30.456Z,116.00
2018-09-19T05:21:30.447Z,124.00
2018-09-19T05:22:30.431Z,128.00
2018-09-19T05:23:30.463Z,136.00
2018-09-19T05:24:30.434Z,148.00
2018-09-19T05:25:30.411Z,156.00
2018-09-19T05:26:30.393Z,160.00
2018-09-19T05:27:30.377Z,168.00
2018-09-19T05:28:30.410Z,176.00
2018-09-19T05:29:30.373Z,184.00
2018-09-19T05:30:30.362Z,192.00
2018-09-19T05:31:30.386Z,204.00
2018-09-19T05:32:30.327Z,216.00
2018-09-19T05:33:30.315Z,220.00
2018-09-19T05:34:30.344Z,232.00
2018-09-19T05:35:30.295Z,244.00
2018-09-19T05:36:30.276Z,256.00
2018-09-19T05:37:30.262Z,264.00
2018-09-19T05:38:30.264Z,272.00
2018-09-19T05:39:30.285Z,284.00
2018-09-19T05:40:30.234Z,296.00
2018-09-19T05:41:30.239Z,304.00
2018-09-19T05:42:30.207Z,316.00
2018-09-19T05:43:30.196Z,328.00
2018-09-19T05:44:30.255Z,340.00
2018-09-19T05:45:30.176Z,348.00
2018-09-19T05:46:30.208Z,360.00
2018-09-19T05:47:30.168Z,376.00
2018-09-19T05:48:30.153Z,388.00
2018-09-19T05:49:30.201Z,400.00
2018-09-19T05:50:30.121Z,412.00
2018-09-19T05:51:30.107Z,420.00
2018-09-19T05:52:30.108Z,432.00
2018-09-19T05:53:30.112Z,444.00
2018-09-19T05:54:30.190Z,452.00
2018-09-19T05:55:30.077Z,460.00
2018-09-19T05:56:30.062Z,472.00
2018-09-19T05:57:30.045Z,480.00
2018-09-19T05:58:30.043Z,492.00
2018-09-19T05:59:30.072Z,500.00
2018-09-19T06:00:30.063Z,512.00
2018-09-19T06:01:30.001Z,520.00
2018-09-19T06:02:29.988Z,532.00
2018-09-19T06:03:29.981Z,544.00
2018-09-19T06:04:30.014Z,552.00
2018-09-19T06:05:29.951Z,564.00
2018-09-19T06:06:29.940Z,572.00
2018-09-19T06:07:29.929Z,584.00
2018-09-19T06:08:29.920Z,592.00
2018-09-19T06:09:29.955Z,604.00
2018-09-19T06:10:29.907Z,616.00
2018-09-19T06:11:29.890Z,624.00
2018-09-19T06:12:29.872Z,640.00
2018-09-19T06:13:29.863Z,644.00
2018-09-19T06:14:29.898Z,660.00
2018-09-19T06:15:29.843Z,672.00
2018-09-19T06:16:29.843Z,680.00
2018-09-19T06:17:29.819Z,692.00
2018-09-19T06:18:29.809Z,704.00
2018-09-19T06:19:29.846Z,712.00
2018-09-19T06:20:29.791Z,708.00
2018-09-19T06:21:29.777Z,728.00
2018-09-19T06:22:29.767Z,740.00
2018-09-19T06:23:29.751Z,744.00
2018-09-19T06:24:29.788Z,760.00
2018-09-19T06:25:29.739Z,764.00
2018-09-19T06:26:29.718Z,772.00
2018-09-19T06:27:29.706Z,784.00
2018-09-19T06:28:29.705Z,792.00
2018-09-19T06:29:29.728Z,804.00
2018-09-19T06:30:29.673Z,808.00
2018-09-19T06:31:29.663Z,816.00
2018-09-19T06:32:29.652Z,828.00
2018-09-19T06:33:29.689Z,836.00
2018-09-19T06:34:29.673Z,848.00
2018-09-19T06:35:29.626Z,860.00
2018-09-19T06:36:29.608Z,872.00
2018-09-19T06:37:29.595Z,888.00
2018-09-19T06:38:29.644Z,900.00
2018-09-19T06:39:29.618Z,912.00
2018-09-19T06:40:29.636Z,916.00
2018-09-19T06:41:29.550Z,920.00
2018-09-19T06:42:29.539Z,936.00
2018-09-19T06:43:29.529Z,944.00
2018-09-19T06:44:29.564Z,956.00
2018-09-19T06:45:29.545Z,960.00
2018-09-19T06:46:29.498Z,972.00
2018-09-19T06:47:29.485Z,976.00
2018-09-19T06:48:29.475Z,984.00
2018-09-19T06:49:29.508Z,1000.00
2018-09-19T06:50:29.458Z,1012.00
2018-09-19T06:51:29.451Z,1024.00
2018-09-19T06:52:29.510Z,1024.00
2018-09-19T06:53:29.419Z,1036.00
2018-09-19T06:54:29.459Z,1048.00
2018-09-19T06:55:29.396Z,1060.00
2018-09-19T06:56:29.385Z,1060.00
2018-09-19T06:57:29.423Z,1092.00
2018-09-19T06:58:29.372Z,1092.00
2018-09-19T06:59:29.404Z,1104.00
2018-09-19T07:00:29.342Z,1120.00
2018-09-19T07:01:29.346Z,1128.00
2018-09-19T07:02:29.329Z,1132.00
2018-09-19T07:03:29.333Z,1140.00
2018-09-19T07:04:29.345Z,1152.00
2018-09-19T07:05:29.330Z,1160.00
2018-09-19T07:06:29.286Z,1156.00
2018-09-19T07:07:29.487Z,1160.00
2018-09-19T07:08:29.262Z,1172.00
2018-09-19T07:09:29.313Z,1188.00
2018-09-19T07:10:29.263Z,1192.00
2018-09-19T07:11:29.269Z,1196.00
2018-09-19T07:12:29.211Z,1208.00
2018-09-19T07:13:29.205Z,1212.00
2018-09-19T07:14:29.290Z,1228.00
2018-09-19T07:15:29.184Z,1228.00
2018-09-19T07:16:29.162Z,1232.00
2018-09-19T07:17:29.190Z,1240.00
2018-09-19T07:18:29.156Z,1244.00
2018-09-19T07:19:29.200Z,1252.00
2018-09-19T07:20:29.142Z,1260.00
2018-09-19T07:21:29.110Z,1276.00
2018-09-19T07:22:29.104Z,1284.00
2018-09-19T07:23:29.087Z,1300.00
2018-09-19T07:24:29.131Z,1312.00
2018-09-19T07:25:29.066Z,1328.00
2018-09-19T07:26:29.060Z,1336.00
2018-09-19T07:27:29.072Z,1328.00
2018-09-19T07:28:29.041Z,1340.00
2018-09-19T07:29:29.077Z,1336.00
2018-09-19T07:30:29.013Z,1340.00
2018-09-19T07:31:29.001Z,1348.00
2018-09-19T07:32:28.992Z,1356.00
2018-09-19T07:33:28.992Z,1364.00
2018-09-19T07:34:29.056Z,1372.00
2018-09-19T07:35:28.954Z,1424.00
2018-09-19T07:36:29.516Z,1516.00
2018-09-19T07:37:28.937Z,1564.00
2018-09-19T07:38:28.927Z,1480.00
2018-09-19T07:39:28.968Z,1488.00
2018-09-19T07:40:28.971Z,1568.00
2018-09-19T07:41:28.895Z,1844.00
2018-09-19T07:42:28.877Z,1720.00
2018-09-19T07:43:28.868Z,1820.00
2018-09-19T07:44:28.923Z,2092.00
2018-09-19T07:45:28.854Z,2300.00
2018-09-19T07:46:28.890Z,3124.00
2018-09-19T07:47:28.830Z,3836.00
2018-09-19T07:48:28.825Z,4088.00
2018-09-19T07:49:28.800Z,3492.00
2018-09-19T07:50:28.894Z,3672.00
2018-09-19T07:51:28.795Z,4352.00
2018-09-19T07:52:28.793Z,3588.00
2018-09-19T07:53:28.763Z,2788.00
2018-09-19T07:54:28.771Z,2192.00
2018-09-19T07:55:28.853Z,2148.00
2018-09-19T07:56:28.731Z,2272.00
2018-09-19T07:57:28.785Z,2732.00
2018-09-19T07:58:28.745Z,3060.00
2018-09-19T07:59:28.698Z,4108.00
2018-09-19T08:00:28.790Z,4888.00
2018-09-19T08:01:28.774Z,3796.00
2018-09-19T08:02:28.711Z,3976.00
2018-09-19T08:03:28.697Z,3868.00
2018-09-19T08:04:28.689Z,3980.00
2018-09-19T08:05:28.674Z,4188.00
2018-09-19T08:06:28.655Z,4996.00
2018-09-19T08:07:28.608Z,7024.00
2018-09-19T08:08:28.593Z,5564.00
2018-09-19T08:09:28.585Z,3672.00
2018-09-19T08:10:28.619Z,3220.00
2018-09-19T08:11:28.570Z,3468.00
2018-09-19T08:12:28.563Z,4168.00
2018-09-19T08:13:28.848Z,3580.00
2018-09-19T08:14:28.529Z,3876.00
2018-09-19T08:15:28.577Z,5668.00
2018-09-19T08:16:28.520Z,7868.00
2018-09-19T08:17:28.504Z,7532.00
2018-09-19T08:18:28.491Z,6980.00
2018-09-19T08:19:28.624Z,6488.00
2018-09-19T08:20:28.523Z,5188.00
2018-09-19T08:21:28.462Z,3312.00
2018-09-19T08:22:28.474Z,2268.00
2018-09-19T08:23:28.520Z,1952.00
2018-09-19T08:24:28.425Z,1932.00
2018-09-19T08:25:28.564Z,1956.00
2018-09-19T08:26:28.408Z,1976.00
2018-09-19T08:27:28.425Z,1984.00
2018-09-19T08:28:28.485Z,2040.00
2018-09-19T08:29:29.076Z,2104.00
2018-09-19T08:30:29.132Z,2208.00
2018-09-19T08:31:28.367Z,2604.00
2018-09-19T08:32:28.532Z,3708.00
2018-09-19T08:33:28.316Z,3720.00
2018-09-19T08:34:28.373Z,3884.00
2018-09-19T08:35:28.344Z,3464.00
2018-09-19T08:36:28.284Z,3312.00
2018-09-19T08:37:28.295Z,2992.00
2018-09-19T08:38:28.258Z,2420.00
2018-09-19T08:39:28.259Z,2268.00
2018-09-19T08:40:28.301Z,2384.00
2018-09-19T08:41:28.243Z,2388.00
2018-09-19T08:42:28.227Z,2280.00
2018-09-19T08:43:28.208Z,2304.00
2018-09-19T08:44:28.197Z,2212.00
2018-09-19T08:45:28.255Z,2612.00
2018-09-19T08:46:28.178Z,2360.00
2018-09-19T08:47:28.159Z,2252.00
2018-09-19T08:48:28.155Z,2280.00
2018-09-19T08:49:28.142Z,2264.00
2018-09-19T08:50:28.204Z,2320.00
2018-09-19T08:51:28.139Z,2352.00
2018-09-19T08:52:28.109Z,2292.00
2018-09-19T08:53:28.102Z,2332.00
2018-09-19T08:54:28.081Z,2268.00
2018-09-19T08:55:28.126Z,2212.00
2018-09-19T08:56:28.079Z,2256.00
2018-09-19T08:57:28.049Z,2268.00
2018-09-19T08:58:28.055Z,2272.00
2018-09-19T08:59:28.029Z,2328.00
2018-09-19T09:00:28.071Z,2348.00
2018-09-19T09:01:28.023Z,2336.00
2018-09-19T09:02:27.998Z,2652.00
2018-09-19T09:03:27.992Z,2516.00
2018-09-19T09:04:27.975Z,2372.00
2018-09-19T09:05:28.083Z,2420.00
2018-09-19T09:06:27.954Z,2508.00
2018-09-19T09:07:27.940Z,2672.00
2018-09-19T09:08:27.938Z,2852.00
2018-09-19T09:09:27.916Z,2512.00
2018-09-19T09:10:27.992Z,2524.00
2018-09-19T09:11:27.895Z,2580.00
2018-09-19T09:12:27.906Z,2512.00
2018-09-19T09:13:27.891Z,2516.00
2018-09-19T09:14:27.864Z,2468.00
2018-09-19T09:15:27.911Z,2456.00
2018-09-19T09:16:27.859Z,2532.00
2018-09-19T09:17:27.835Z,2516.00
2018-09-19T09:18:27.822Z,2580.00
2018-09-19T09:19:27.818Z,2716.00
2018-09-19T09:20:27.870Z,2708.00
2018-09-19T09:21:27.788Z,2976.00
2018-09-19T09:22:27.795Z,2672.00
2018-09-19T09:23:27.764Z,2804.00
2018-09-19T09:24:27.762Z,2788.00
2018-09-19T09:25:27.742Z,3204.00
2018-09-19T09:26:27.790Z,3204.00
2018-09-19T09:27:27.805Z,3144.00
2018-09-19T09:28:27.718Z,3276.00
2018-09-19T09:29:27.723Z,3568.00
2018-09-19T09:30:27.693Z,4284.00
2018-09-19T09:31:27.751Z,5832.00
2018-09-19T09:32:27.693Z,5640.00
2018-09-19T09:33:27.669Z,4944.00
2018-09-19T09:34:27.648Z,3052.00
2018-09-19T09:35:27.642Z,2780.00
2018-09-19T09:36:27.681Z,2748.00
2018-09-19T09:37:27.616Z,2912.00
2018-09-19T09:38:27.607Z,2972.00
2018-09-19T09:39:27.608Z,2872.00
2018-09-19T09:40:27.640Z,2868.00
2018-09-19T09:41:27.633Z,2772.00
2018-09-19T09:42:27.565Z,2736.00
2018-09-19T09:43:27.637Z,2744.00
2018-09-19T09:44:27.545Z,2740.00
2018-09-19T09:45:27.537Z,3156.00
2018-09-19T09:46:27.603Z,7968.00
2018-09-19T09:47:27.517Z,13164.00
2018-09-19T09:48:27.507Z,14528.00
2018-09-19T09:49:27.513Z,8372.00
2018-09-19T09:50:27.531Z,17536.00
2018-09-19T09:51:27.537Z,10128.00
2018-09-19T09:52:27.457Z,8528.00
2018-09-19T09:53:27.504Z,5972.00
2018-09-19T09:54:27.435Z,2776.00
2018-09-19T09:55:27.419Z,2616.00
2018-09-19T09:56:27.454Z,2592.00
2018-09-19T09:57:27.395Z,2604.00
2018-09-19T09:58:27.393Z,2556.00
2018-09-19T09:59:27.372Z,2560.00
2018-09-19T10:00:27.372Z,2556.00
2018-09-19T10:01:27.404Z,2516.00
2018-09-19T10:02:27.437Z,2508.00
2018-09-19T10:03:27.346Z,2492.00
2018-09-19T10:04:27.314Z,2504.00
2018-09-19T10:05:27.313Z,3128.00
2018-09-19T10:06:27.362Z,3608.00
2018-09-19T10:07:27.281Z,3128.00
2018-09-19T10:08:27.270Z,3632.00
2018-09-19T10:09:27.270Z,3076.00
2018-09-19T10:10:27.248Z,2528.00
2018-09-19T10:11:27.291Z,2600.00
2018-09-19T10:12:27.227Z,2900.00
2018-09-19T10:13:27.221Z,3508.00
2018-09-19T10:14:27.209Z,2812.00
2018-09-19T10:15:27.201Z,2608.00
2018-09-19T10:16:27.230Z,3300.00
2018-09-19T10:17:27.170Z,3104.00
2018-09-19T10:18:27.161Z,4604.00
2018-09-19T10:19:27.151Z,4444.00
2018-09-19T10:20:27.157Z,4400.00
2018-09-19T10:21:27.170Z,3320.00
2018-09-19T10:22:27.119Z,3392.00
2018-09-19T10:23:27.115Z,4024.00
2018-09-19T10:24:27.094Z,2568.00
2018-09-19T10:25:27.130Z,2560.00
2018-09-19T10:26:27.144Z,2540.00
2018-09-19T10:27:27.076Z,2500.00
2018-09-19T10:28:27.048Z,2548.00
2018-09-19T10:29:27.056Z,2676.00
2018-09-19T10:30:27.028Z,2840.00
2018-09-19T10:31:27.035Z,2836.00
2018-09-19T10:32:27.120Z,2872.00
2018-09-19T10:33:26.994Z,2824.00
2018-09-19T10:34:26.988Z,2664.00
2018-09-19T10:35:27.032Z,2792.00
2018-09-19T10:36:26.965Z,2856.00
2018-09-19T10:37:27.131Z,4152.00
2018-09-19T10:38:27.900Z,3624.00
2018-09-19T10:39:26.956Z,3188.00
2018-09-19T10:40:27.324Z,3344.00
2018-09-19T10:41:26.971Z,4112.00
2018-09-19T10:42:27.079Z,4492.00
2018-09-19T10:43:26.933Z,6776.00
2018-09-19T10:44:26.890Z,24192.00
2018-09-19T10:45:27.585Z,36064.00
2018-09-19T10:46:26.858Z,4852.00
2018-09-19T10:47:26.971Z,5084.00
2018-09-19T10:48:26.839Z,8296.00
2018-09-19T10:49:26.889Z,6484.00
2018-09-19T10:50:26.847Z,6148.00
2018-09-19T10:51:26.809Z,3556.00
2018-09-19T10:52:26.844Z,4184.00
2018-09-19T10:53:26.858Z,2520.00
2018-09-19T10:54:26.830Z,2964.00
2018-09-19T10:55:26.755Z,3008.00
2018-09-19T10:56:26.751Z,2992.00
2018-09-19T10:57:27.115Z,2920.00
2018-09-19T10:58:26.729Z,2912.00
2018-09-19T10:59:26.727Z,3100.00
2018-09-19T11:00:26.707Z,6308.00
2018-09-19T11:01:26.721Z,6492.00
2018-09-19T11:02:26.741Z,5612.00
2018-09-19T11:03:26.668Z,3108.00
2018-09-19T11:04:26.659Z,4192.00
2018-09-19T11:05:26.658Z,3524.00
2018-09-19T11:06:26.644Z,4364.00
2018-09-19T11:07:26.705Z,4580.00
2018-09-19T11:08:26.637Z,5760.00
2018-09-19T11:09:26.613Z,6600.00
2018-09-19T11:10:26.601Z,3636.00
2018-09-19T11:11:26.588Z,3560.00
2018-09-19T11:12:26.580Z,3864.00
2018-09-19T11:13:26.608Z,5624.00
2018-09-19T11:14:26.553Z,6728.00
2018-09-19T11:15:26.550Z,7156.00
2018-09-19T11:16:26.527Z,7396.00
2018-09-19T11:17:26.517Z,7576.00
2018-09-19T11:18:26.567Z,7404.00
2018-09-19T11:19:26.504Z,7548.00
2018-09-19T11:20:26.489Z,7636.00
2018-09-19T11:21:26.479Z,7084.00
2018-09-19T11:22:26.461Z,6716.00
2018-09-19T11:23:26.498Z,6804.00
2018-09-19T11:24:26.444Z,6900.00
2018-09-19T11:25:26.434Z,6896.00
2018-09-19T11:26:26.439Z,7332.00
2018-09-19T11:27:26.410Z,7316.00
2018-09-19T11:28:26.455Z,7848.00
2018-09-19T11:29:26.385Z,7632.00
2018-09-19T11:30:26.391Z,8060.00
2018-09-19T11:31:26.371Z,7692.00
2018-09-19T11:32:26.355Z,7428.00
2018-09-19T11:33:26.393Z,7324.00
2018-09-19T11:34:26.365Z,6868.00
2018-09-19T11:35:26.332Z,5952.00
2018-09-19T11:36:26.310Z,4608.00
2018-09-19T11:37:26.308Z,4944.00
2018-09-19T11:38:26.341Z,4576.00
2018-09-19T11:39:26.284Z,4116.00
2018-09-19T11:40:26.273Z,3856.00
2018-09-19T11:41:26.273Z,4080.00
2018-09-19T11:42:26.272Z,4272.00
2018-09-19T11:43:26.308Z,3936.00
2018-09-19T11:44:26.227Z,3488.00
2018-09-19T11:45:26.221Z,4340.00
2018-09-19T11:46:26.204Z,4492.00
2018-09-19T11:47:26.209Z,4296.00
2018-09-19T11:48:26.253Z,4012.00
2018-09-19T11:49:26.170Z,3844.00
2018-09-19T11:50:26.167Z,3044.00
2018-09-19T11:51:26.150Z,2992.00
2018-09-19T11:52:26.141Z,2992.00
2018-09-19T11:53:26.177Z,3360.00
2018-09-19T11:54:26.125Z,3452.00
2018-09-19T11:55:26.110Z,4228.00
2018-09-19T11:56:26.094Z,6988.00
2018-09-19T11:57:26.098Z,8744.00
2018-09-19T11:58:26.139Z,4508.00
2018-09-19T11:59:26.071Z,13312.00
2018-09-19T12:00:26.062Z,3616.00
2018-09-19T12:01:26.039Z,3464.00
2018-09-19T12:02:26.044Z,4664.00
2018-09-19T12:03:26.111Z,5432.00
2018-09-19T12:04:26.022Z,7832.00
2018-09-19T12:05:26.006Z,9600.00
2018-09-19T12:06:26.005Z,28832.00
2018-09-19T12:07:26.103Z,44384.00
2018-09-19T12:08:26.044Z,29280.00
2018-09-19T12:09:25.952Z,27328.00
2018-09-19T12:10:25.945Z,23648.00
2018-09-19T12:11:25.950Z,14720.00
2018-09-19T12:12:25.926Z,10656.00
2018-09-19T12:13:25.964Z,4404.00
2018-09-19T12:14:25.901Z,6232.00
2018-09-19T12:15:25.888Z,7976.00
2018-09-19T12:16:25.891Z,11600.00
2018-09-19T12:17:25.870Z,15040.00
2018-09-19T12:18:25.907Z,15328.00
2018-09-19T12:19:25.907Z,17120.00
2018-09-19T12:20:25.864Z,14880.00
2018-09-19T12:21:25.841Z,6848.00
2018-09-19T12:22:25.821Z,7828.00
2018-09-19T12:23:26.035Z,7184.00
2018-09-19T12:24:25.806Z,35424.00
2018-09-19T12:25:25.783Z,5400.00
2018-09-19T12:26:25.823Z,23136.00
2018-09-19T12:27:25.765Z,11964.00
2018-09-19T12:28:25.759Z,48640.00
2018-09-19T12:29:25.800Z,46336.00
2018-09-19T12:30:25.735Z,45088.00
2018-09-19T12:31:25.734Z,45184.00
2018-09-19T12:32:25.728Z,46656.00
2018-09-19T12:33:25.789Z,43744.00
2018-09-19T12:34:25.759Z,42400.00
2018-09-19T12:35:25.697Z,39104.00
2018-09-19T12:36:25.663Z,35712.00
2018-09-19T12:37:25.664Z,29408.00
2018-09-19T12:38:25.649Z,14752.00
2018-09-19T12:39:25.727Z,22496.00
2018-09-19T12:40:25.644Z,28512.00
2018-09-19T12:41:25.612Z,8164.00
2018-09-19T12:42:25.605Z,2672.00
2018-09-19T12:43:25.598Z,2564.00
2018-09-19T12:44:25.651Z,2552.00
2018-09-19T12:45:25.567Z,2496.00
2018-09-19T12:46:25.562Z,2436.00
2018-09-19T12:47:25.640Z,2444.00
2018-09-19T12:48:25.538Z,2420.00
2018-09-19T12:49:25.595Z,2388.00
2018-09-19T12:50:25.517Z,2388.00
2018-09-19T12:51:25.505Z,2376.00
2018-09-19T12:52:25.516Z,2356.00
2018-09-19T12:53:25.537Z,2376.00
2018-09-19T12:54:25.528Z,2380.00
2018-09-19T12:55:25.463Z,2380.00
2018-09-19T12:56:25.452Z,2360.00
2018-09-19T12:57:25.443Z,2324.00
2018-09-19T12:58:25.444Z,2308.00
2018-09-19T12:59:25.480Z,2288.00
2018-09-19T13:00:25.416Z,2280.00
2018-09-19T13:01:25.405Z,2256.00
2018-09-19T13:02:25.392Z,2252.00
2018-09-19T13:03:25.386Z,2204.00
2018-09-19T13:04:25.417Z,2212.00
2018-09-19T13:05:25.354Z,2160.00
2018-09-19T13:06:25.395Z,2144.00
2018-09-19T13:07:25.340Z,2128.00
2018-09-19T13:08:25.321Z,2136.00
2018-09-19T13:09:25.361Z,2180.00
2018-09-19T13:10:25.302Z,2136.00
2018-09-19T13:11:25.290Z,2132.00
2018-09-19T13:12:25.289Z,2136.00
2018-09-19T13:13:25.268Z,2084.00
2018-09-19T13:14:25.312Z,2104.00
2018-09-19T13:15:25.251Z,2088.00
2018-09-19T13:16:25.255Z,2084.00
2018-09-19T13:17:25.232Z,2064.00
2018-09-19T13:18:25.216Z,2048.00
2018-09-19T13:19:25.257Z,2060.00
2018-09-19T13:20:25.192Z,2052.00
2018-09-19T13:21:25.181Z,2024.00
2018-09-19T13:22:25.217Z,2036.00
2018-09-19T13:23:25.174Z,2036.00
2018-09-19T13:24:25.154Z,2024.00
2018-09-19T13:25:25.183Z,1964.00
2018-09-19T13:26:25.171Z,1988.00
2018-09-19T13:27:25.134Z,2004.00
2018-09-19T13:28:25.119Z,2016.00
2018-09-19T13:29:25.098Z,2020.00
2018-09-19T13:30:25.143Z,2012.00